createdAt,value
2017-09-23T00:00:52.104Z,90.30
2017-09-23T00:03:19.740Z,90.30
2017-09-23T00:05:47.379Z,90.30
2017-09-23T00:08:15.055Z,90.30
2017-09-23T00:10:42.639Z,90.20
2017-09-23T00:13:10.232Z,90.00
2017-09-23T00:15:37.791Z,90.30
2017-09-23T00:18:05.344Z,90.50
2017-09-23T00:20:32.999Z,90.50
2017-09-23T00:23:02.066Z,90.40
2017-09-23T00:25:30.340Z,90.40
2017-09-23T00:27:58.331Z,90.40
2017-09-23T00:30:27.502Z,90.40
2017-09-23T00:32:56.419Z,90.60
2017-09-23T00:35:26.041Z,90.50
2017-09-23T00:37:55.418Z,90.60
2017-09-23T00:40:24.099Z,90.60
2017-09-23T00:42:52.171Z,90.60
2017-09-23T00:45:19.967Z,90.70
2017-09-23T00:47:48.371Z,91.10
2017-09-23T00:50:15.914Z,90.90
2017-09-23T00:52:43.488Z,91.20
2017-09-23T00:55:11.031Z,91.10
2017-09-23T00:57:38.627Z,91.00
2017-09-23T01:00:06.851Z,90.90
2017-09-23T01:02:34.779Z,90.90
2017-09-23T01:05:03.081Z,91.00
2017-09-23T01:07:31.463Z,90.70
2017-09-23T01:10:00.469Z,90.80
2017-09-23T01:12:29.727Z,90.80
2017-09-23T01:14:58.691Z,90.70
2017-09-23T01:17:29.148Z,90.60
2017-09-23T01:19:58.841Z,90.60
2017-09-23T01:22:29.473Z,90.50
2017-09-23T01:25:00.122Z,90.40
2017-09-23T01:27:30.138Z,90.30
2017-09-23T01:30:00.760Z,90.50
2017-09-23T01:32:30.324Z,90.80
2017-09-23T01:35:01.615Z,90.90
2017-09-23T01:37:30.873Z,90.90
2017-09-23T01:40:01.388Z,91.00
2017-09-23T01:42:30.357Z,91.10
2017-09-23T01:45:01.076Z,90.90
2017-09-23T01:47:30.184Z,90.80
2017-09-23T01:50:00.315Z,90.90
2017-09-23T01:52:32.196Z,91.00
2017-09-23T01:55:02.090Z,91.20
2017-09-23T01:57:35.579Z,91.30
2017-09-23T02:00:04.087Z,91.50
2017-09-23T02:02:32.932Z,91.60
2017-09-23T02:05:01.064Z,91.80
2017-09-23T02:07:30.769Z,91.80
2017-09-23T02:10:01.392Z,92.10
2017-09-23T02:12:31.319Z,91.60
2017-09-23T02:15:02.653Z,91.70
2017-09-23T02:17:30.966Z,92.10
2017-09-23T02:20:01.068Z,91.70
2017-09-23T02:22:30.526Z,91.70
2017-09-23T02:25:00.262Z,91.70
2017-09-23T02:27:30.587Z,91.60
2017-09-23T02:30:03.525Z,91.70
2017-09-23T02:32:32.596Z,92.00
2017-09-23T02:35:01.032Z,92.00
2017-09-23T02:37:32.859Z,92.10
2017-09-23T02:40:02.439Z,92.10
2017-09-23T02:42:31.925Z,92.10
2017-09-23T02:45:02.495Z,91.80
2017-09-23T02:47:33.695Z,91.80
2017-09-23T02:50:06.209Z,91.40
2017-09-23T02:52:36.662Z,91.40
2017-09-23T02:55:04.653Z,91.40
2017-09-23T02:57:33.078Z,91.30
2017-09-23T03:00:01.816Z,91.30
2017-09-23T03:02:33.644Z,91.30
2017-09-23T03:05:02.670Z,91.20
2017-09-23T03:07:31.291Z,91.20
2017-09-23T03:10:09.229Z,91.30
2017-09-23T03:12:37.902Z,91.40
2017-09-23T03:15:07.104Z,91.50
2017-09-23T03:17:37.537Z,91.50
2017-09-23T03:20:07.226Z,91.80
2017-09-23T03:22:37.056Z,91.70
2017-09-23T03:25:07.835Z,92.00
2017-09-23T03:27:36.905Z,92.00
2017-09-23T03:30:06.376Z,91.80
2017-09-23T03:32:35.758Z,91.50
2017-09-23T03:35:11.967Z,91.40
2017-09-23T03:37:40.771Z,91.40
2017-09-23T03:40:30.779Z,91.40
2017-09-23T03:43:04.831Z,91.50
2017-09-23T03:45:41.010Z,91.40
2017-09-23T03:48:08.626Z,91.70
2017-09-23T03:50:37.084Z,91.60
2017-09-23T03:53:06.432Z,91.50
2017-09-23T03:55:34.426Z,91.70
2017-09-23T03:58:02.635Z,92.00
2017-09-23T04:00:30.825Z,92.10
2017-09-23T04:03:01.764Z,91.90
2017-09-23T04:05:30.838Z,91.80
2017-09-23T04:08:00.705Z,91.70
2017-09-23T04:10:30.020Z,91.70
2017-09-23T04:13:00.371Z,92.00
2017-09-23T04:15:29.648Z,92.30
2017-09-23T04:17:59.536Z,92.10
2017-09-23T04:20:29.295Z,91.70
2017-09-23T04:22:59.506Z,91.60
2017-09-23T04:25:28.609Z,91.50
2017-09-23T04:27:58.698Z,91.30
2017-09-23T04:30:28.172Z,91.70
2017-09-23T04:32:57.912Z,91.70
2017-09-23T04:35:27.413Z,91.80
2017-09-23T04:37:56.667Z,91.90
2017-09-23T04:40:28.707Z,92.00
2017-09-23T04:42:57.525Z,92.00
2017-09-23T04:45:28.565Z,91.90
2017-09-23T04:47:57.077Z,91.90
2017-09-23T04:50:26.573Z,91.80
2017-09-23T04:52:55.628Z,92.00
2017-09-23T04:55:24.905Z,91.90
2017-09-23T04:57:52.600Z,91.90
2017-09-23T05:00:20.272Z,92.00
2017-09-23T05:02:47.879Z,91.70
2017-09-23T05:05:15.479Z,91.50
2017-09-23T05:07:43.019Z,91.60
2017-09-23T05:10:10.596Z,91.60
2017-09-23T05:12:38.127Z,91.70
2017-09-23T05:15:05.816Z,91.50
2017-09-23T05:17:33.524Z,91.60
2017-09-23T05:20:01.487Z,91.80
2017-09-23T05:22:29.722Z,91.70
2017-09-23T05:24:58.023Z,91.70
2017-09-23T05:27:25.852Z,91.80
2017-09-23T05:29:53.535Z,92.00
2017-09-23T05:32:21.160Z,91.90
2017-09-23T05:34:48.742Z,91.60
2017-09-23T05:37:16.275Z,91.30
2017-09-23T05:39:43.843Z,91.30
2017-09-23T05:42:12.151Z,91.30
2017-09-23T05:44:39.723Z,91.20
2017-09-23T05:47:07.264Z,91.40
2017-09-23T05:49:34.853Z,91.30
2017-09-23T05:52:03.495Z,91.00
2017-09-23T05:54:31.119Z,91.00
2017-09-23T05:56:59.063Z,91.10
2017-09-23T05:59:26.795Z,91.30
2017-09-23T06:01:55.611Z,91.50
2017-09-23T06:04:24.596Z,91.50
2017-09-23T06:06:52.400Z,91.50
2017-09-23T06:09:20.003Z,91.60
2017-09-23T06:11:47.554Z,91.60
2017-09-23T06:14:15.100Z,91.90
2017-09-23T06:16:42.671Z,92.00
2017-09-23T06:19:10.215Z,92.10
2017-09-23T06:21:38.286Z,92.20
2017-09-23T06:24:06.227Z,92.10
2017-09-23T06:26:34.457Z,92.10
2017-09-23T06:29:02.921Z,91.90
2017-09-23T06:31:30.738Z,91.90
2017-09-23T06:33:58.748Z,91.60
2017-09-23T06:36:28.374Z,91.70
2017-09-23T06:38:57.820Z,91.60
2017-09-23T06:41:26.673Z,91.60
2017-09-23T06:43:54.736Z,91.40
2017-09-23T06:46:22.763Z,91.30
2017-09-23T06:48:50.597Z,91.20
2017-09-23T06:51:18.279Z,91.40
2017-09-23T06:53:45.882Z,91.20
2017-09-23T06:56:13.424Z,91.10
2017-09-23T06:58:41.135Z,91.00
2017-09-23T07:01:08.753Z,90.80
2017-09-23T07:03:36.336Z,90.70
2017-09-23T07:06:03.979Z,90.70
2017-09-23T07:08:32.532Z,90.00
2017-09-23T07:11:01.168Z,89.80
2017-09-23T07:13:28.819Z,89.50
2017-09-23T07:15:56.716Z,89.20
2017-09-23T07:18:24.491Z,88.90
2017-09-23T07:20:52.179Z,88.10
2017-09-23T07:23:19.798Z,87.80
2017-09-23T07:25:47.363Z,87.30
2017-09-23T07:28:14.947Z,86.90
2017-09-23T07:30:42.489Z,88.70
2017-09-23T07:33:10.092Z,87.90
2017-09-23T07:35:37.644Z,87.20
2017-09-23T07:38:05.340Z,86.10
2017-09-23T07:40:33.030Z,87.30
2017-09-23T07:43:00.965Z,86.30
2017-09-23T07:45:28.873Z,86.00
2017-09-23T07:47:56.875Z,85.90
2017-09-23T07:50:24.632Z,85.20
2017-09-23T07:52:52.514Z,83.70
2017-09-23T07:55:20.237Z,84.50
2017-09-23T07:57:47.919Z,84.10
2017-09-23T08:00:15.480Z,83.20
2017-09-23T08:02:43.056Z,82.50
2017-09-23T08:05:11.375Z,81.20
2017-09-23T08:07:39.725Z,81.00
2017-09-23T08:10:07.280Z,81.00
2017-09-23T08:12:35.003Z,81.20
2017-09-23T08:15:02.847Z,81.20
2017-09-23T08:17:30.499Z,82.90
2017-09-23T08:19:58.564Z,85.00
2017-09-23T08:22:26.498Z,85.10
2017-09-23T08:24:54.222Z,84.30
2017-09-23T08:27:22.732Z,80.70
2017-09-23T08:29:50.332Z,80.70
2017-09-23T08:32:18.737Z,78.80
2017-09-23T08:34:46.312Z,78.80
2017-09-23T08:37:13.908Z,77.50
2017-09-23T08:39:42.198Z,74.60
2017-09-23T08:42:09.740Z,74.60
2017-09-23T08:44:37.363Z,74.40
2017-09-23T08:47:05.760Z,71.90
2017-09-23T08:49:33.552Z,71.80
2017-09-23T08:52:01.231Z,73.10
2017-09-23T08:54:28.869Z,73.10
2017-09-23T08:56:56.528Z,73.50
2017-09-23T08:59:24.473Z,72.30
2017-09-23T09:01:52.023Z,72.10
2017-09-23T09:04:20.384Z,70.70
2017-09-23T09:06:48.004Z,70.70
2017-09-23T09:09:15.579Z,71.00
2017-09-23T09:11:43.128Z,70.70
2017-09-23T09:14:10.711Z,69.80
2017-09-23T09:16:38.243Z,68.30
2017-09-23T09:19:05.823Z,68.70
2017-09-23T09:21:33.397Z,68.90
2017-09-23T09:24:01.783Z,66.30
2017-09-23T09:26:29.448Z,66.20
2017-09-23T09:28:57.298Z,66.90
2017-09-23T09:31:24.896Z,67.10
2017-09-23T09:33:52.503Z,66.90
2017-09-23T09:36:20.076Z,66.70
2017-09-23T09:38:47.746Z,66.60
2017-09-23T09:41:15.299Z,65.20
2017-09-23T09:43:42.880Z,66.10
2017-09-23T09:46:10.418Z,65.60
2017-09-23T09:48:38.003Z,65.50
2017-09-23T09:51:05.541Z,64.90
2017-09-23T09:53:33.146Z,65.40
2017-09-23T09:56:00.717Z,65.20
2017-09-23T09:58:28.421Z,65.60
2017-09-23T10:00:56.868Z,65.00
2017-09-23T10:03:24.499Z,64.90
2017-09-23T10:05:52.041Z,64.60
2017-09-23T10:08:19.628Z,64.60
2017-09-23T10:10:47.165Z,64.00
2017-09-23T10:13:15.493Z,62.20
2017-09-23T10:15:43.038Z,62.20
2017-09-23T10:18:10.616Z,63.60
2017-09-23T10:20:38.913Z,64.00
2017-09-23T10:23:06.790Z,64.00
2017-09-23T10:25:34.327Z,63.70
2017-09-23T10:28:01.965Z,63.10
2017-09-23T10:30:29.620Z,62.90
2017-09-23T10:32:57.192Z,64.30
2017-09-23T10:35:24.812Z,61.80
2017-09-23T10:37:52.379Z,62.30
2017-09-23T10:40:19.966Z,63.70
2017-09-23T10:42:47.528Z,63.90
2017-09-23T10:45:15.124Z,62.20
2017-09-23T10:47:42.671Z,62.50
2017-09-23T10:50:10.248Z,63.60
2017-09-23T10:52:37.774Z,62.50
2017-09-23T10:55:06.123Z,62.20
2017-09-23T10:57:34.447Z,61.10
2017-09-23T11:00:02.054Z,61.00
2017-09-23T11:02:29.618Z,59.80
2017-09-23T11:04:57.191Z,60.30
2017-09-23T11:07:24.779Z,60.80
2017-09-23T11:09:53.139Z,61.10
2017-09-23T11:12:21.565Z,59.40
2017-09-23T11:14:49.145Z,59.40
2017-09-23T11:17:16.686Z,59.70
2017-09-23T11:19:44.263Z,60.80
2017-09-23T11:22:11.811Z,60.00
2017-09-23T11:24:39.392Z,60.50
2017-09-23T11:27:06.952Z,60.60
2017-09-23T11:29:35.663Z,60.50
2017-09-23T11:32:03.968Z,59.20
2017-09-23T11:34:31.601Z,59.20
2017-09-23T11:36:59.263Z,60.80
2017-09-23T11:39:27.010Z,60.10
2017-09-23T11:41:55.413Z,62.30
2017-09-23T11:44:22.991Z,62.20
2017-09-23T11:46:50.540Z,60.80
2017-09-23T11:49:18.168Z,62.70
2017-09-23T11:51:45.756Z,62.50
2017-09-23T11:54:13.328Z,59.50
2017-09-23T11:56:40.872Z,60.20
2017-09-23T11:59:08.449Z,60.00
2017-09-23T12:01:36.767Z,59.10
2017-09-23T12:04:04.375Z,59.00
2017-09-23T12:06:31.950Z,59.40
2017-09-23T12:08:59.555Z,60.20
2017-09-23T12:11:27.141Z,60.00
2017-09-23T12:13:54.769Z,59.50
2017-09-23T12:16:22.314Z,59.60
2017-09-23T12:18:49.919Z,60.80
2017-09-23T12:21:18.231Z,58.90
2017-09-23T12:23:45.826Z,58.80
2017-09-23T12:26:13.356Z,60.20
2017-09-23T12:28:40.903Z,59.80
2017-09-23T12:31:08.486Z,62.30
2017-09-23T12:33:36.021Z,59.50
2017-09-23T12:36:04.369Z,67.80
2017-09-23T12:38:31.972Z,67.70
2017-09-23T12:40:59.530Z,65.80
2017-09-23T12:43:27.158Z,64.60
2017-09-23T12:45:54.775Z,66.10
2017-09-23T12:48:22.360Z,66.20
2017-09-23T12:50:49.923Z,66.70
2017-09-23T12:53:17.517Z,69.40
2017-09-23T12:55:45.064Z,60.70
2017-09-23T12:58:12.645Z,64.90
2017-09-23T13:00:40.200Z,64.20
2017-09-23T13:03:07.744Z,63.40
2017-09-23T13:05:35.315Z,62.10
2017-09-23T13:08:02.899Z,63.40
2017-09-23T13:10:30.459Z,62.20
2017-09-23T13:12:58.039Z,64.90
2017-09-23T13:15:25.671Z,68.30
2017-09-23T13:17:53.232Z,68.70
2017-09-23T13:20:20.832Z,66.70
2017-09-23T13:22:48.425Z,66.40
2017-09-23T13:25:16.006Z,60.80
2017-09-23T13:27:44.310Z,62.30
2017-09-23T13:30:11.896Z,62.20
2017-09-23T13:32:40.216Z,63.80
2017-09-23T13:35:07.799Z,63.70
2017-09-23T13:37:35.336Z,59.40
2017-09-23T13:40:02.936Z,59.50
2017-09-23T13:42:30.577Z,59.10
2017-09-23T13:44:58.236Z,59.80
2017-09-23T13:47:25.891Z,60.20
2017-09-23T13:49:53.496Z,59.50
2017-09-23T13:52:21.049Z,59.80
2017-09-23T13:54:48.652Z,57.90
2017-09-23T13:57:16.183Z,56.80
2017-09-23T13:59:43.746Z,59.40
2017-09-23T14:02:11.288Z,57.00
2017-09-23T14:04:38.867Z,56.40
2017-09-23T14:07:06.404Z,56.50
2017-09-23T14:09:34.741Z,56.80
2017-09-23T14:12:02.316Z,56.80
2017-09-23T14:14:30.692Z,55.90
2017-09-23T14:16:58.314Z,55.90
2017-09-23T14:19:26.694Z,55.90
2017-09-23T14:21:54.838Z,55.80
2017-09-23T14:24:22.448Z,56.10
2017-09-23T14:26:49.992Z,55.70
2017-09-23T14:29:18.398Z,55.40
2017-09-23T14:31:46.719Z,53.40
2017-09-23T14:34:15.091Z,52.10
2017-09-23T14:36:42.639Z,52.10
2017-09-23T14:39:10.194Z,53.00
2017-09-23T14:41:37.777Z,53.10
2017-09-23T14:44:05.328Z,53.40
2017-09-23T14:46:32.908Z,53.10
2017-09-23T14:49:00.460Z,54.80
2017-09-23T14:51:28.051Z,56.30
2017-09-23T14:53:55.617Z,56.10
2017-09-23T14:56:23.224Z,55.90
2017-09-23T14:58:50.774Z,56.30
2017-09-23T15:01:18.351Z,56.60
2017-09-23T15:03:46.713Z,57.00
2017-09-23T15:06:15.822Z,57.70
2017-09-23T15:08:43.418Z,59.10
2017-09-23T15:11:11.825Z,58.00
2017-09-23T15:13:39.364Z,58.00
2017-09-23T15:16:07.088Z,60.50
2017-09-23T15:18:34.644Z,60.50
2017-09-23T15:21:02.225Z,61.40
2017-09-23T15:23:29.789Z,62.40
2017-09-23T15:25:57.479Z,62.20
2017-09-23T15:28:25.121Z,63.00
2017-09-23T15:30:52.773Z,64.80
2017-09-23T15:33:21.420Z,66.60
2017-09-23T15:35:49.874Z,65.80
2017-09-23T15:38:17.493Z,65.80
2017-09-23T15:40:45.129Z,66.60
2017-09-23T15:43:12.747Z,66.30
2017-09-23T15:45:40.421Z,68.70
2017-09-23T15:48:07.955Z,69.10
2017-09-23T15:50:35.528Z,66.70
2017-09-23T15:53:03.093Z,67.40
2017-09-23T15:55:31.488Z,67.80
2017-09-23T15:57:59.036Z,68.40
2017-09-23T16:00:27.412Z,69.90
2017-09-23T16:02:55.033Z,69.80
2017-09-23T16:05:22.592Z,71.90
2017-09-23T16:07:50.199Z,73.10
2017-09-23T16:10:17.760Z,73.50
2017-09-23T16:12:46.118Z,73.10
2017-09-23T16:15:13.661Z,73.10
2017-09-23T16:17:41.234Z,74.00
2017-09-23T16:20:09.526Z,73.70
2017-09-23T16:22:37.091Z,73.70
2017-09-23T16:25:04.625Z,73.60
2017-09-23T16:27:32.244Z,74.00
2017-09-23T16:29:59.813Z,74.80
2017-09-23T16:32:27.422Z,75.70
2017-09-23T16:34:55.767Z,74.60
2017-09-23T16:37:23.338Z,74.60
2017-09-23T16:39:50.894Z,75.20
2017-09-23T16:42:18.495Z,75.10
2017-09-23T16:44:46.072Z,75.20
2017-09-23T16:47:14.434Z,76.10
2017-09-23T16:49:42.743Z,76.90
2017-09-23T16:52:10.316Z,76.90
2017-09-23T16:54:37.863Z,77.40
2017-09-23T16:57:05.476Z,77.70
2017-09-23T16:59:33.078Z,77.80
2017-09-23T17:02:01.395Z,78.30
2017-09-23T17:04:28.993Z,78.20
2017-09-23T17:06:56.625Z,78.20
2017-09-23T17:09:24.278Z,78.70
2017-09-23T17:11:51.870Z,79.50
2017-09-23T17:14:19.516Z,80.00
2017-09-23T17:16:47.091Z,81.30
2017-09-23T17:19:14.719Z,81.10
2017-09-23T17:21:42.433Z,80.20
2017-09-23T17:24:10.016Z,80.10
2017-09-23T17:26:37.618Z,80.10
2017-09-23T17:29:05.209Z,80.50
2017-09-23T17:31:32.828Z,80.50
2017-09-23T17:34:00.452Z,81.50
2017-09-23T17:36:28.129Z,81.70
2017-09-23T17:38:55.852Z,82.20
2017-09-23T17:41:23.403Z,81.90
2017-09-23T17:43:51.025Z,82.40
2017-09-23T17:46:19.383Z,83.20
2017-09-23T17:48:47.813Z,83.60
2017-09-23T17:51:15.401Z,83.40
2017-09-23T17:53:43.734Z,83.10
2017-09-23T17:56:11.308Z,83.10
2017-09-23T17:58:40.514Z,83.70
2017-09-23T18:01:08.869Z,83.70
2017-09-23T18:03:36.475Z,83.20
2017-09-23T18:06:04.011Z,84.00
2017-09-23T18:08:31.583Z,85.60
2017-09-23T18:10:59.136Z,85.50
2017-09-23T18:13:27.500Z,85.60
2017-09-23T18:15:55.837Z,85.60
2017-09-23T18:18:23.415Z,85.60
2017-09-23T18:20:51.719Z,85.60
2017-09-23T18:23:19.301Z,85.60
2017-09-23T18:25:46.847Z,85.30
2017-09-23T18:28:14.434Z,85.30
2017-09-23T18:30:41.979Z,86.20
2017-09-23T18:33:09.657Z,86.10
2017-09-23T18:35:37.203Z,86.00
2017-09-23T18:38:04.811Z,86.70
2017-09-23T18:40:32.457Z,87.40
2017-09-23T18:43:00.036Z,87.80
2017-09-23T18:45:27.600Z,87.60
2017-09-23T18:47:55.225Z,88.00
2017-09-23T18:50:22.768Z,87.90
2017-09-23T18:52:50.332Z,88.60
2017-09-23T18:55:17.868Z,87.80
2017-09-23T18:57:45.427Z,86.70
2017-09-23T19:00:12.967Z,86.80
2017-09-23T19:02:40.512Z,86.70
2017-09-23T19:05:08.092Z,87.30
2017-09-23T19:07:36.411Z,88.10
2017-09-23T19:10:03.964Z,88.10
2017-09-23T19:12:31.509Z,88.70
2017-09-23T19:14:59.071Z,89.00
2017-09-23T19:17:26.636Z,88.40
2017-09-23T19:19:54.974Z,87.70
2017-09-23T19:22:22.528Z,87.70
2017-09-23T19:24:50.091Z,87.30
2017-09-23T19:27:18.390Z,86.60
2017-09-23T19:29:45.970Z,86.60
2017-09-23T19:32:13.516Z,86.10
2017-09-23T19:34:41.099Z,85.80
2017-09-23T19:37:08.642Z,86.60
2017-09-23T19:39:36.965Z,88.00
2017-09-23T19:42:04.538Z,87.80
2017-09-23T19:44:32.848Z,87.50
2017-09-23T19:47:00.402Z,87.40
2017-09-23T19:49:27.960Z,88.00
2017-09-23T19:51:55.533Z,88.30
2017-09-23T19:54:23.067Z,88.50
2017-09-23T19:56:50.637Z,88.90
2017-09-23T19:59:18.947Z,89.20
2017-09-23T20:01:46.499Z,89.20
2017-09-23T20:04:14.055Z,89.60
2017-09-23T20:06:41.609Z,89.80
2017-09-23T20:09:09.164Z,90.00
2017-09-23T20:11:36.723Z,89.90
2017-09-23T20:14:05.040Z,89.50
2017-09-23T20:16:32.725Z,89.50
2017-09-23T20:19:01.036Z,89.80
2017-09-23T20:21:28.587Z,89.80
2017-09-23T20:23:56.171Z,90.00
2017-09-23T20:26:23.730Z,90.10
2017-09-23T20:28:51.331Z,90.00
2017-09-23T20:31:18.870Z,90.20
2017-09-23T20:33:46.477Z,90.20
2017-09-23T20:36:14.791Z,90.30
2017-09-23T20:38:42.368Z,90.30
2017-09-23T20:41:10.815Z,90.00
2017-09-23T20:43:38.361Z,90.00
2017-09-23T20:46:05.899Z,89.60
2017-09-23T20:48:33.496Z,90.00
2017-09-23T20:51:01.039Z,90.10
2017-09-23T20:53:29.413Z,90.10
2017-09-23T20:55:57.035Z,90.10
2017-09-23T20:58:25.357Z,90.10
2017-09-23T21:00:52.936Z,90.10
2017-09-23T21:03:21.235Z,90.30
2017-09-23T21:05:48.808Z,90.30
2017-09-23T21:08:16.360Z,90.30
2017-09-23T21:10:44.182Z,90.20
2017-09-23T21:13:11.874Z,88.50
2017-09-23T21:15:40.317Z,87.20
2017-09-23T21:18:07.959Z,87.10
2017-09-23T21:20:35.608Z,86.10
2017-09-23T21:23:03.210Z,86.70
2017-09-23T21:25:30.839Z,86.60
2017-09-23T21:27:59.152Z,84.70
2017-09-23T21:30:26.764Z,84.60
2017-09-23T21:32:54.306Z,85.00
2017-09-23T21:35:21.843Z,83.80
2017-09-23T21:37:50.208Z,83.60
2017-09-23T21:40:18.521Z,82.60
2017-09-23T21:42:46.110Z,82.50
2017-09-23T21:45:13.686Z,83.80
2017-09-23T21:47:41.264Z,84.20
2017-09-23T21:50:08.803Z,82.70
2017-09-23T21:52:36.372Z,83.60
2017-09-23T21:55:03.915Z,82.50
2017-09-23T21:57:31.689Z,83.60
2017-09-23T21:59:59.433Z,82.10
2017-09-23T22:02:27.044Z,83.10
2017-09-23T22:04:54.617Z,80.60
2017-09-23T22:07:22.987Z,84.40
2017-09-23T22:09:51.298Z,85.20
2017-09-23T22:12:18.856Z,85.00
2017-09-23T22:14:47.168Z,86.10
2017-09-23T22:17:15.540Z,86.20
2017-09-23T22:19:43.136Z,86.10
2017-09-23T22:22:10.889Z,85.90
2017-09-23T22:24:38.579Z,86.20
2017-09-23T22:27:06.900Z,86.00
2017-09-23T22:29:37.757Z,86.00
2017-09-23T22:32:05.404Z,85.40
2017-09-23T22:34:33.964Z,85.30
2017-09-23T22:37:02.423Z,85.30
2017-09-23T22:39:30.054Z,85.30
2017-09-23T22:41:57.628Z,84.50
2017-09-23T22:44:26.040Z,85.10
2017-09-23T22:46:53.881Z,85.00
2017-09-23T22:49:23.514Z,85.40
2017-09-23T22:51:51.252Z,84.50
2017-09-23T22:54:19.851Z,84.90
2017-09-23T22:56:47.994Z,85.40
2017-09-23T22:59:16.389Z,85.20
2017-09-23T23:01:43.934Z,85.10
2017-09-23T23:04:12.311Z,86.30
2017-09-23T23:06:39.964Z,86.20
2017-09-23T23:09:07.559Z,86.40
2017-09-23T23:11:35.103Z,86.30
2017-09-23T23:14:02.717Z,86.50
2017-09-23T23:16:30.675Z,87.40
2017-09-23T23:18:58.524Z,87.40
2017-09-23T23:21:26.358Z,87.50
2017-09-23T23:23:53.936Z,87.70
2017-09-23T23:26:21.629Z,88.30
2017-09-23T23:28:50.040Z,87.70
2017-09-23T23:31:17.700Z,87.70
2017-09-23T23:33:45.338Z,87.50
2017-09-23T23:36:14.409Z,87.80
2017-09-23T23:38:42.072Z,88.00
2017-09-23T23:41:09.736Z,88.00
2017-09-23T23:43:37.412Z,88.10
2017-09-23T23:46:05.908Z,88.40
2017-09-23T23:48:34.294Z,88.70
2017-09-23T23:51:01.970Z,88.60
2017-09-23T23:53:29.672Z,89.00
2017-09-23T23:55:57.984Z,89.00
2017-09-23T23:58:27.174Z,89.00
